SR-99 : SR-26 Fremont St Atmospheric Data: 03/22/2019 Summary  Detailed Graphs  Station List

  Temperature     Wind Precipitation Visibility
Timestamp Air Wet
Bulb
Dew-
point
24-hr
Max
24-hr
Min
Relative
Humidity
Atmospheric
Pressure
Avg
Speed
Avg
Dir
Spot
Speed
Spot
Dir
Max
Speed
Max
Dir
  Rate Situation Start End 1 hr 3 hr 6 hr 12 hr 24 hr   Situation
Date Time °F °F °F °F °F % in Hg mph ° mph ° mph ° Y/N in/hr text Date Time Date Time in in in in in mi text
03/22/2019 12:00 AM 53.42 48.38 43.88 67.28 48.92 69.0 30.13 1.79 W 2.46 W 4.25 SW x x Other     0.000 0.000 0.000 0.000 0.000 9.95 Other
03/22/2019 12:10 AM 53.06 48.38 43.52 67.28 48.92 70.0 30.15 3.58 W 2.91 W 5.59 W x x Other     0.000 0.000 0.000 0.000 0.000 9.95 Other
03/22/2019 12:20 AM 52.88 48.02 43.34 67.28 48.92 69.0 30.15 4.47 W 4.92 W 6.71 W x x Other     0.000 0.000 0.000 0.000 0.000 9.95 Other
03/22/2019 12:30 AM 52.70 48.02 43.16 67.28 48.92 70.0 30.13 3.58 W 2.91 SW 6.26 W x x Other     0.000 0.000 0.000 0.000 0.000 9.95 Other
03/22/2019 12:40 AM 52.52 47.84 43.16 67.28 48.92 70.0 30.15 2.46 W 2.46 W 5.82 W x x Other     0.000 0.000 0.000 0.000 0.000 9.95 Other
03/22/2019 12:50 AM 52.52 47.84 43.16 67.28 48.92 70.0 30.13 2.68 W 2.46 W 4.03 W x x Other     0.000 0.000 0.000 0.000 0.000 9.95 Other
03/22/2019 01:00 AM 52.16 47.84 43.16 67.28 48.92 71.0 30.13 0.67 SW 1.12 S 3.36 W x x Other     0.000 0.000 0.000 0.000 0.000 9.95 Other
03/22/2019 01:10 AM 51.98 47.48 43.16 67.28 48.92 71.0 30.13 1.12 SW 0.67 SW 2.46 S x x Other     0.000 0.000 0.000 0.000 0.000 9.95 Other
03/22/2019 01:20 AM 51.98 47.48 43.16 67.28 48.92 72.0 30.13 0.45 W 1.34 W 1.57 SW x x Other     0.000 0.000 0.000 0.000 0.000 9.95 Other
03/22/2019 01:30 AM 51.44 47.30 43.16 67.28 48.92 73.0 30.15 0.22 N 0.00 N 2.01 S x x Other     0.000 0.000 0.000 0.000 0.000 9.95 Other
03/22/2019 01:40 AM 51.26 47.12 43.16 67.28 48.92 73.0 30.15 1.12 W 1.79 W 2.24 W x x Other     0.000 0.000 0.000 0.000 0.000 9.95 Other
03/22/2019 01:50 AM 50.72 46.76 42.80 67.28 48.92 74.0 30.15 1.57 W 1.57 W 2.91 NW x x Other     0.000 0.000 0.000 0.000 0.000 9.95 Other
03/22/2019 02:00 AM 50.36 46.58 42.44 67.28 48.92 74.0 30.15 1.12 W 0.22 NW 3.36 W x x Other     0.000 0.000 0.000 0.000 0.000 9.95 Other
03/22/2019 02:20 AM 50.36 46.58 42.26 67.28 48.92 73.0 30.15 0.89 NW 0.00 S 2.01 NW x x Other     0.000 0.000 0.000 0.000 0.000 9.95 Other
03/22/2019 02:30 AM 50.18 46.22 42.26 67.28 48.92 74.0 30.15 0.00 SE 0.00 SE 1.79 SW x x Other     0.000 0.000 0.000 0.000 0.000 9.95 Other
03/22/2019 02:40 AM 49.82 46.04 42.26 67.28 48.92 75.0 30.15 0.00 SE 0.00 SE 1.12 SE x x Other     0.000 0.000 0.000 0.000 0.000 9.95 Other
03/22/2019 02:50 AM 49.46 45.86 42.62 67.28 48.92 77.0 30.15 2.46 E 2.91 E 2.91 E x x Other     0.000 0.000 0.000 0.000 0.000 9.95 Other
03/22/2019 03:00 AM 48.74 45.68 42.44 67.28 48.74 78.0 30.15 2.68 E 2.01 E 3.80 E x x Other     0.000 0.000 0.000 0.000 0.000 9.95 Other
03/22/2019 03:10 AM 48.38 45.50 42.62 67.28 48.38 80.0 30.15 1.57 NE 0.89 NE 3.36 E x x Other     0.000 0.000 0.000 0.000 0.000 9.95 Other
03/22/2019 03:20 AM 48.38 45.50 42.44 67.28 48.20 79.0 30.15 2.91 E 2.91 E 3.58 E x x Other     0.000 0.000 0.000 0.000 0.000 9.95 Other
03/22/2019 03:30 AM 47.84 45.14 42.26 67.28 47.66 81.0 30.13 2.46 E 2.46 E 3.80 E x x Other     0.000 0.000 0.000 0.000 0.000 9.95 Other
03/22/2019 03:50 AM 46.94 44.78 42.44 67.28 46.94 84.0 30.13 3.36 E 2.91 E 4.03 E x x Other     0.000 0.000 0.000 0.000 0.000 9.95 Other
03/22/2019 04:00 AM 46.76 44.60 42.62 67.28 46.76 84.0 30.13 1.12 E 0.22 E 4.25 E x x Other     0.000 0.000 0.000 0.000 0.000 9.95 Other
03/22/2019 04:10 AM 46.40 44.60 42.44 67.28 46.40 85.0 30.13 2.01 E 2.24 E 3.58 E x x Other     0.000 0.000 0.000 0.000 0.000 9.95 Other
03/22/2019 04:20 AM 46.22 44.24 42.44 67.28 46.04 86.0 30.13 2.68 E 1.79 NE 3.58 E x x Other     0.000 0.000 0.000 0.000 0.000 9.95 Other
03/22/2019 04:30 AM 46.22 44.24 42.44 67.28 46.04 86.0 30.13 0.67 E 0.45 E 3.36 E x x Other     0.000 0.000 0.000 0.000 0.000 9.95 Other
03/22/2019 04:50 AM 46.58 44.60 42.80 67.28 46.04 86.0 30.13 1.79 E 1.12 E 2.91 E x x Other     0.000 0.000 0.000 0.000 0.000 9.95 Other
03/22/2019 05:00 AM 46.22 44.60 42.62 67.28 46.04 87.0 30.13 1.57 E 1.79 E 3.13 E x x Other     0.000 0.000 0.000 0.000 0.000 9.95 Other
03/22/2019 05:10 AM 45.68 44.24 42.62 67.28 45.68 88.0 30.13 2.46 E 3.13 SE 3.80 E x x Other     0.000 0.000 0.000 0.000 0.000 9.95 Other
03/22/2019 05:20 AM 45.68 44.42 42.80 67.28 45.68 89.0 30.13 1.34 E 1.57 E 2.91 E x x Other     0.000 0.000 0.000 0.000 0.000 9.95 Other
03/22/2019 05:30 AM 46.04 44.60 43.16 67.28 45.68 89.0 30.13 1.12 E 2.01 S 2.91 SE x x Other     0.000 0.000 0.000 0.000 0.000 9.95 Other
03/22/2019 05:40 AM 46.40 44.78 43.34 67.28 45.68 89.0 30.13 1.12 E 0.67 E 1.79 E x x Other     0.000 0.000 0.000 0.000 0.000 9.95 Other
03/22/2019 05:50 AM 46.22 44.60 43.16 67.28 45.68 89.0 30.13 1.34 E 1.57 E 2.01 E x x Other     0.000 0.000 0.000 0.000 0.000 9.95 Other
03/22/2019 06:00 AM 45.68 44.42 42.80 67.28 45.68 89.0 30.13 0.67 E 1.57 E 2.01 E x x Other     0.000 0.000 0.000 0.000 0.000 9.95 Other
03/22/2019 06:10 AM 45.68 44.42 42.98 67.28 45.68 90.0 30.13 2.91 E 3.13 E 3.80 E x x Other     0.000 0.000 0.000 0.000 0.000 9.95 Other
03/22/2019 06:20 AM 45.68 44.42 43.16 67.28 45.68 91.0 30.13 2.68 E 3.36 E 4.70 E x x Other     0.000 0.000 0.000 0.000 0.000 9.95 Other
03/22/2019 06:30 AM 45.86 44.78 43.52 67.28 45.68 91.0 30.13 2.24 E 4.25 S 4.25 SE x x Other     0.000 0.000 0.000 0.000 0.000 9.95 Other
03/22/2019 06:40 AM 46.22 44.96 43.70 67.28 45.68 90.0 30.13 2.24 SE 1.12 SE 4.47 S x x Other     0.000 0.000 0.000 0.000 0.000 9.95 Other
03/22/2019 06:50 AM 46.22 44.78 43.52 67.28 45.68 90.0 30.13 0.67 SE 0.67 E 2.01 SE x x Other     0.000 0.000 0.000 0.000 0.000 9.95 Other
03/22/2019 07:00 AM 46.58 45.32 44.06 67.28 45.68 90.0 30.13 3.80 SE 2.01 S 6.26 S x x Other     0.000 0.000 0.000 0.000 0.000 9.95 Other
03/22/2019 07:10 AM 46.58 44.96 43.70 67.28 45.68 89.0 30.13 1.79 SE 1.57 SE 5.59 SE x x Other     0.000 0.000 0.000 0.000 0.000 9.95 Other
03/22/2019 07:20 AM 46.94 45.50 43.70 67.28 45.68 88.0 30.13 2.91 SE 0.67 SE 4.92 SE x x Other     0.000 0.000 0.000 0.000 0.000 9.95 Other
03/22/2019 07:30 AM 46.94 45.50 43.70 67.28 45.68 88.0 30.13 2.91 SE 3.13 S 5.14 S x x Other     0.000 0.000 0.000 0.000 0.000 9.95 Other
03/22/2019 07:40 AM 46.94 45.32 43.70 67.28 45.68 88.0 30.13 2.01 SE 1.34 S 5.59 S x x Other     0.000 0.000 0.000 0.000 0.000 9.95 Other
03/22/2019 07:50 AM 47.30 45.50 43.70 67.28 45.68 87.0 30.13 3.13 SE 2.46 SE 6.49 SE x x Other     0.000 0.000 0.000 0.000 0.000 9.95 Other
03/22/2019 08:10 AM 47.48 45.68 43.70 67.28 45.68 86.0 30.13 2.46 SE 1.57 SE 3.80 S x x Other     0.000 0.000 0.000 0.000 0.000 9.95 Other
03/22/2019 08:20 AM 47.66 45.68 43.70 67.28 45.68 86.0 30.15 2.68 S 3.80 S 6.04 SE x x Other     0.000 0.000 0.000 0.000 0.000 9.95 Other
03/22/2019 08:30 AM 48.74 46.40 43.88 67.28 45.68 83.0 30.15 2.68 S 4.03 S 6.26 S x x Other     0.000 0.000 0.000 0.000 0.000 9.95 Other
03/22/2019 08:40 AM 48.02 45.86 43.52 67.28 45.68 84.0 30.15 2.91 SE 2.91 SE 4.47 SE x x Other     0.000 0.000 0.000 0.000 0.000 9.95 Other
03/22/2019 08:50 AM 48.38 46.22 44.06 67.28 45.68 85.0 30.15 2.91 SE 2.68 SE 4.47 SE x x Other     0.000 0.000 0.000 0.000 0.000 9.95 Other
03/22/2019 09:00 AM 48.38 46.04 43.88 67.28 45.68 85.0 30.15 3.80 SE 3.13 SE 5.14 SE x x Other     0.000 0.000 0.000 0.000 0.000 9.95 Other
03/22/2019 09:10 AM 47.84 45.86 43.88 67.28 45.68 86.0 30.15 4.03 SE 3.80 SE 5.59 SE x x Other     0.000 0.000 0.000 0.000 0.000 9.95 Other
03/22/2019 09:20 AM 48.02 45.86 43.52 67.28 45.68 84.0 30.15 4.47 E 3.36 E 6.04 E x x Other     0.000 0.000 0.000 0.000 0.000 9.95 Other
03/22/2019 09:30 AM 48.38 45.86 43.34 67.28 45.68 82.0 30.15 3.58 E 3.58 E 6.26 E x x Other     0.000 0.000 0.000 0.000 0.000 9.95 Other
03/22/2019 09:40 AM 48.56 46.40 43.88 67.28 45.68 83.0 30.15 4.25 E 5.82 E 6.71 E x x Other     0.000 0.000 0.000 0.000 0.000 9.95 Other
03/22/2019 10:00 AM 49.46 46.58 43.88 67.28 45.68 80.0 30.17 2.46 SE 2.68 SE 6.04 E x x Other     0.000 0.000 0.000 0.000 0.000 9.95 Other
03/22/2019 10:10 AM 49.82 46.94 43.70 67.28 45.68 79.0 30.17 3.13 SE 3.36 E 6.04 S x x Other     0.000 0.000 0.000 0.000 0.000 9.95 Other
03/22/2019 10:20 AM 50.36 47.12 43.88 67.28 45.68 78.0 30.17 1.34 S 1.79 SE 6.49 S x x Other     0.000 0.000 0.000 0.000 0.000 9.95 Other
03/22/2019 10:30 AM 50.90 47.48 43.88 67.28 45.68 76.0 30.17 2.46 SE 2.01 SE 4.47 S x x Other     0.000 0.000 0.000 0.000 0.000 9.95 Other
03/22/2019 10:40 AM 51.26 47.48 43.88 67.28 45.68 76.0 30.18 2.24 SE 1.12 SE 3.13 SE x x Other     0.000 0.000 0.000 0.000 0.000 9.95 Other
03/22/2019 10:50 AM 52.16 48.20 44.24 67.28 45.68 74.0 30.18 1.12 SE 1.34 SE 4.47 S x x Other     0.000 0.000 0.000 0.000 0.000 9.95 Other
03/22/2019 11:00 AM 52.52 48.56 44.42 67.28 45.68 73.0 30.18 1.57 E 1.12 N 4.03 S x x Other     0.000 0.000 0.000 0.000 0.000 9.95 Other
03/22/2019 11:10 AM 53.60 49.10 44.78 67.28 45.68 71.0 30.18 0.67 NE 0.00 E 2.91 NE x x Other     0.000 0.000 0.000 0.000 0.000 9.95 Other
03/22/2019 11:20 AM 54.14 49.64 45.14 67.28 45.68 71.0 30.18 0.67 NE 0.45 S 2.91 NE x x Other     0.000 0.000 0.000 0.000 0.000 9.95 Other
03/22/2019 11:30 AM 54.86 50.00 45.68 67.28 45.68 71.0 30.20 1.12 SE 1.79 E 3.58 SE x x Other     0.000 0.000 0.000 0.000 0.000 9.95 Other
03/22/2019 11:40 AM 55.22 49.82 44.96 67.28 45.68 68.0 30.20 0.45 N 1.34 N 3.13 N x x Other     0.000 0.000 0.000 0.000 0.000 9.95 Other
03/22/2019 11:50 AM 56.12 50.54 45.32 67.28 45.68 66.0 30.20 0.89 N 1.12 W 3.36 NE x x Other     0.000 0.000 0.000 0.000 0.000 9.95 Other
03/22/2019 12:00 PM 55.94 50.00 44.42 67.28 45.68 64.0 30.20 1.34 NE 1.79 NE 3.80 S x x Other     0.000 0.000 0.000 0.000 0.000 9.95 Other
03/22/2019 12:10 PM 56.12 49.10 41.54 67.28 45.68 57.0 30.22 2.24 S 1.57 S 4.25 S x x Other     0.000 0.000 0.000 0.000 0.000 9.95 Other
03/22/2019 12:20 PM 57.56 50.18 42.62 67.28 45.68 57.0 30.22 1.34 SW 1.79 W 4.03 S x x Other     0.000 0.000 0.000 0.000 0.000 9.95 Other
03/22/2019 12:30 PM 58.10 50.36 42.44 67.28 45.68 56.0 30.22 1.12 E 1.57 SE 5.59 W x x Other     0.000 0.000 0.000 0.000 0.000 9.95 Other
03/22/2019 12:40 PM 59.00 50.90 42.44 67.28 45.68 53.0 30.22 1.34 SE 5.59 S 5.59 S x x Other     0.000 0.000 0.000 0.000 0.000 9.95 Other
03/22/2019 12:50 PM 59.36 50.90 42.08 67.28 45.68 52.0 30.22 1.57 W 0.67 SE 5.37 NW x x Other     0.000 0.000 0.000 0.000 0.000 9.95 Other
03/22/2019 01:00 PM 58.64 50.00 40.64 67.28 45.68 51.0 30.22 4.47 SE 3.58 E 7.38 S x x Other     0.000 0.000 0.000 0.000 0.000 9.95 Other
03/22/2019 01:10 PM 58.82 50.54 41.72 67.28 45.68 53.0 30.22 3.36 SE 2.68 SE 7.83 S x x Other     0.000 0.000 0.000 0.000 0.000 9.95 Other
03/22/2019 01:20 PM 59.72 50.90 41.36 67.28 45.68 50.0 30.22 2.46 SW 3.13 SW 7.61 S x x Other     0.000 0.000 0.000 0.000 0.000 9.95 Other
03/22/2019 01:30 PM 59.54 51.26 42.62 67.28 45.68 53.0 30.22 2.91 SE 2.01 SE 6.49 SE x x Other     0.000 0.000 0.000 0.000 0.000 9.95 Other
03/22/2019 01:40 PM 59.90 51.08 41.72 67.28 45.68 51.0 30.22 5.82 S 4.47 S 8.28 S x x Other     0.000 0.000 0.000 0.000 0.000 9.95 Other
03/22/2019 01:50 PM 60.98 51.98 42.62 67.28 45.68 50.0 30.22 5.14 S 5.14 S 6.26 S x x Other     0.000 0.000 0.000 0.000 0.000 9.95 Other
03/22/2019 02:00 PM 60.08 51.44 42.44 67.28 45.68 52.0 30.22 2.91 SE 4.03 S 8.50 S x x Other     0.000 0.000 0.000 0.000 0.000 9.95 Other
03/22/2019 02:10 PM 60.44 51.80 43.34 67.28 45.68 53.0 30.22 4.25 SE 5.14 SE 6.71 SE x x Other     0.000 0.000 0.000 0.000 0.000 9.95 Other
03/22/2019 02:20 PM 60.26 51.80 43.34 67.28 45.68 53.0 30.22 4.47 E 8.28 SE 7.61 SE x x Other     0.000 0.000 0.000 0.000 0.000 9.95 Other
03/22/2019 02:30 PM 60.26 51.62 42.44 67.28 45.68 51.0 30.22 2.46 S 0.45 NE 8.72 SE x x Other     0.000 0.000 0.000 0.000 0.000 9.95 Other
03/22/2019 02:40 PM 60.26 50.90 40.82 67.28 45.68 48.0 30.22 5.59 SE 5.59 SE 9.17 SE x x Other     0.000 0.000 0.000 0.000 0.000 9.95 Other
03/22/2019 02:50 PM 60.98 51.80 42.44 67.28 45.68 50.0 30.20 4.25 E 4.03 SE 7.61 SE x x Other     0.000 0.000 0.000 0.000 0.000 9.95 Other
03/22/2019 03:00 PM 60.80 51.62 42.62 67.28 45.68 51.0 30.20 7.38 SE 8.05 E 10.07 SE x x Other     0.000 0.000 0.000 0.000 0.000 9.95 Other
03/22/2019 03:10 PM 60.80 51.80 42.80 67.28 45.68 51.0 30.20 5.14 SE 5.14 S 9.17 E x x Other     0.000 0.000 0.000 0.000 0.000 9.95 Other
03/22/2019 03:20 PM 60.98 51.98 42.80 67.28 45.68 51.0 30.20 3.36 E 6.71 E 7.83 E x x Other     0.000 0.000 0.000 0.000 0.000 9.95 Other
03/22/2019 03:30 PM 60.98 51.98 42.44 67.28 45.68 50.0 30.20 6.04 SE 4.70 SE 11.86 E x x Other     0.000 0.000 0.000 0.000 0.000 9.95 Other
03/22/2019 03:40 PM 61.70 52.34 43.16 67.28 45.68 50.0 30.18 6.04 E 6.49 E 8.95 E x x Other     0.000 0.000 0.000 0.000 0.000 9.95 Other
03/22/2019 03:50 PM 61.88 52.34 42.44 67.28 45.68 48.0 30.18 7.16 E 8.50 SE 11.86 SE x x Other     0.000 0.000 0.000 0.000 0.000 9.95 Other
03/22/2019 04:00 PM 62.60 52.88 42.98 67.28 45.68 48.0 30.18 5.59 SE 2.46 SE 9.17 SE x x Other     0.000 0.000 0.000 0.000 0.000 9.95 Other
03/22/2019 04:10 PM 62.96 52.70 41.72 67.28 45.68 45.0 30.18 5.82 SE 8.28 SE 8.72 E x x Other     0.000 0.000 0.000 0.000 0.000 9.95 Other
03/22/2019 04:20 PM 62.96 51.62 38.30 66.74 45.68 40.0 30.18 6.49 SE 6.49 SE 10.51 SE x x Other     0.000 0.000 0.000 0.000 0.000 9.95 Other
03/22/2019 04:30 PM 62.96 51.62 37.94 66.74 45.68 39.0 30.18 5.14 E 5.59 E 9.17 SE x x Other     0.000 0.000 0.000 0.000 0.000 9.95 Other
03/22/2019 04:40 PM 63.68 51.80 37.40 66.74 45.68 37.0 30.18 4.70 SE 4.03 SE 9.84 E x x Other     0.000 0.000 0.000 0.000 0.000 9.95 Other
03/22/2019 04:50 PM 63.50 51.80 37.22 66.74 45.68 37.0 30.18 5.14 SE 4.03 S 10.96 S x x Other     0.000 0.000 0.000 0.000 0.000 9.95 Other
03/22/2019 05:00 PM 63.68 52.16 38.84 66.74 45.68 39.0 30.18 3.36 E 4.25 E 10.29 SE x x Other     0.000 0.000 0.000 0.000 0.000 9.95 Other
03/22/2019 05:10 PM 63.32 51.98 39.02 66.74 45.68 40.0 30.18 4.92 SE 6.04 SE 8.95 SE x x Other     0.000 0.000 0.000 0.000 0.000 9.95 Other
03/22/2019 05:20 PM 62.96 51.98 39.38 66.02 45.68 42.0 30.18 3.58 SE 5.59 E 11.41 SE x x Other     0.000 0.000 0.000 0.000 0.000 9.95 Other
03/22/2019 05:30 PM 62.78 51.98 39.92 66.02 45.68 42.0 30.18 3.36 SE 2.91 SE 7.61 E x x Other     0.000 0.000 0.000 0.000 0.000 9.95 Other
03/22/2019 05:40 PM 62.42 51.62 39.02 66.02 45.68 41.0 30.17 2.46 SE 2.68 SE 7.38 SE x x Other     0.000 0.000 0.000 0.000 x 9.95 Other
03/22/2019 05:50 PM 62.60 51.98 39.92 66.02 45.68 43.0 30.17 2.68 SE 3.36 SE 7.38 E x x Other     0.000 0.000 0.000 0.000 0.000 9.95 Other
03/22/2019 06:00 PM 62.42 52.16 41.18 66.02 45.68 45.0 30.17 3.80 E 3.36 SE 8.05 SE x x Other     0.000 0.000 0.000 0.000 0.000 9.95 Other
03/22/2019 06:10 PM 62.96 52.70 41.72 66.02 45.68 45.0 30.17 3.36 SW 2.01 SW 6.26 SW x x Other     0.000 0.000 0.000 0.000 0.000 9.95 Other
03/22/2019 06:20 PM 62.60 54.14 46.58 64.58 45.68 55.0 30.17 4.47 W 6.93 NW 6.93 W x x Other     0.000 0.000 0.000 0.000 0.000 9.95 Other
03/22/2019 06:40 PM 59.90 54.68 50.72 64.58 45.68 71.0 30.17 5.14 NW 4.92 W 7.16 NW x x Other     0.000 0.000 0.000 0.000 0.000 9.95 Other
03/22/2019 06:50 PM 59.36 54.32 50.36 64.58 45.68 71.0 30.17 4.03 W 4.70 W 8.28 W x x Other     0.000 0.000 0.000 0.000 0.000 9.95 Other
03/22/2019 07:00 PM 58.82 53.96 49.82 64.58 45.68 72.0 30.17 4.25 NW 5.82 NW 6.26 W x x Other     0.000 0.000 0.000 0.000 0.000 9.95 Other
03/22/2019 07:10 PM 58.82 53.96 49.82 64.58 45.68 72.0 30.15 2.01 NW 2.01 NW 6.71 W x x Other     0.000 0.000 0.000 0.000 0.000 9.95 Other
03/22/2019 07:20 PM 59.00 53.96 50.00 64.58 45.68 72.0 30.15 1.79 NW 1.79 W 3.36 NW x x Other     0.000 0.000 0.000 0.000 0.000 9.95 Other
03/22/2019 07:30 PM 58.46 53.96 50.18 64.58 45.68 74.0 30.15 2.24 N 2.01 NW 4.25 SW x x Other     0.000 0.000 0.000 0.000 0.000 9.95 Other
03/22/2019 07:40 PM 57.74 53.42 50.00 64.58 45.68 75.0 30.15 3.36 N 2.91 N 6.04 N x x Other     0.000 0.000 0.000 0.000 0.000 9.95 Other
03/22/2019 07:50 PM 57.20 53.60 50.54 64.58 45.68 78.0 30.15 3.58 N 3.58 N 4.92 N x x Other     0.000 0.000 0.000 0.000 0.000 9.95 Other
03/22/2019 08:00 PM 57.56 53.60 50.54 64.58 45.68 77.0 30.15 4.70 NW 3.58 NW 6.49 NW x x Other     0.000 0.000 0.000 0.000 0.000 9.95 Other
03/22/2019 08:20 PM 57.38 53.60 50.72 64.58 45.68 78.0 30.15 4.25 NW 2.91 NW 5.59 NW x x Other     0.000 0.000 0.000 0.000 0.000 9.95 Other
03/22/2019 08:30 PM 57.38 53.78 50.90 64.58 45.68 78.0 30.15 4.03 NW 3.36 NW 5.14 NW x x Other     0.000 0.000 0.000 0.000 0.000 9.95 Other
03/22/2019 08:40 PM 57.38 53.78 50.90 64.58 45.68 79.0 30.15 0.89 N 2.68 N 4.25 NW x x Other     0.000 0.000 0.000 0.000 0.000 9.95 Other
03/22/2019 08:50 PM 56.48 53.42 50.90 64.58 45.68 81.0 30.15 2.24 N 2.01 N 3.80 N x x Other     0.000 0.000 0.000 0.000 0.000 9.95 Other
03/22/2019 09:00 PM 56.48 53.60 51.26 64.58 45.68 82.0 30.15 2.01 N 0.22 SE 3.13 N x x Other     0.000 0.000 0.000 0.000 0.000 9.95 Other
03/22/2019 09:10 PM 56.30 53.78 51.80 64.58 45.68 84.0 30.15 1.34 N 0.22 NE 3.13 N x x Other     0.000 0.000 0.000 0.000 0.000 9.95 Other
03/22/2019 09:30 PM 55.76 53.42 51.44 64.58 45.68 85.0 30.15 2.24 NW 1.57 N 4.70 NW x x Other     0.000 0.000 0.000 0.000 0.000 9.95 Other
03/22/2019 09:40 PM 55.94 53.60 51.80 64.58 45.68 86.0 30.15 3.80 NW 3.58 N 6.26 NW x x Other     0.000 0.000 0.000 0.000 0.000 9.95 Other
03/22/2019 09:50 PM 55.58 53.60 52.16 64.58 45.68 88.0 30.15 4.47 NW 3.13 NW 7.16 NW x x Other     0.000 0.000 0.000 0.000 0.000 9.95 Other
03/22/2019 10:00 PM 55.58 53.78 52.52 64.58 45.68 89.0 30.15 2.46 NW 2.91 NW 5.82 NW x x Other     0.000 0.000 0.000 0.000 0.000 9.95 Other
03/22/2019 10:10 PM 55.22 53.78 52.52 64.58 45.68 90.0 30.17 3.58 N 3.58 N 6.26 N x x Other     0.000 0.000 0.000 0.000 0.000 9.95 Other
03/22/2019 10:20 PM 55.76 54.32 53.42 64.58 45.68 92.0 30.17 3.58 x 4.47 NW 6.26 NW x x Other     0.000 0.000 0.000 0.000 0.000 9.95 Other
03/22/2019 10:30 PM 55.58 54.32 53.78 64.58 45.68 93.0 30.15 2.01 N 3.58 N 8.28 NW x x Other     0.000 0.000 0.000 0.000 0.000 9.95 Other
03/22/2019 10:40 PM 55.04 54.14 53.42 64.58 45.68 94.0 30.17 3.80 N 4.25 N 6.26 N x x Other     0.012 0.012 0.012 0.012 0.012 9.95 Other
03/22/2019 10:50 PM 54.50 53.78 52.88 64.58 45.68 94.0 30.17 4.25 N 5.14 N 5.82 N x x Other     0.012 0.012 0.012 0.012 0.012 9.95 Other
03/22/2019 11:00 PM 54.50 53.42 52.52 64.58 45.68 93.0 30.17 4.03 N 4.03 N 6.26 N x x Other     0.012 0.012 0.012 0.012 0.012 9.95 Other
03/22/2019 11:10 PM 54.50 53.60 53.06 64.58 45.68 94.0 30.15 3.36 N 4.47 N 4.92 N x x Other     0.012 0.012 0.012 0.012 0.012 6.71 Other
03/22/2019 11:20 PM 54.32 53.78 53.24 64.58 45.68 95.0 30.15 2.68 N 3.58 NE 4.70 N x x Other     0.012 0.012 0.012 0.012 0.012 7.68 Other
03/22/2019 11:30 PM 54.32 53.78 53.42 64.58 45.68 96.0 30.15 1.79 N 1.34 NE 3.36 N x x Other     0.012 0.012 0.012 0.012 0.012 9.67 Other
03/22/2019 11:40 PM 54.32 53.78 53.60 64.58 45.68 97.0 30.15 1.57 NE 1.57 E 4.70 N x x Other     0.000 0.012 0.012 0.012 0.012 7.90 Other